createdAt,value
2019-05-18T00:01:11.392Z,27.57
2019-05-18T00:03:41.190Z,27.75
2019-05-18T00:06:09.437Z,27.95
2019-05-18T00:08:37.763Z,26.77
2019-05-18T00:13:34.308Z,27.15
2019-05-18T00:16:02.287Z,26.42
2019-05-18T00:20:58.578Z,25.80
2019-05-18T00:23:26.523Z,26.03
2019-05-18T00:25:54.468Z,25.70
2019-05-18T00:28:22.465Z,26.35
2019-05-18T00:30:50.390Z,26.40
2019-05-18T00:33:18.360Z,25.10
2019-05-18T00:35:46.666Z,26.30
2019-05-18T00:40:42.897Z,27.20
2019-05-18T00:43:10.841Z,26.33
2019-05-18T00:45:39.113Z,27.02
2019-05-18T00:48:07.411Z,27.43
2019-05-18T00:50:35.972Z,27.58
2019-05-18T00:55:32.420Z,27.25
2019-05-18T00:58:01.031Z,27.93
2019-05-18T01:00:29.037Z,27.13
2019-05-18T01:02:57.012Z,28.00
2019-05-18T01:07:53.011Z,28.07
2019-05-18T01:10:21.335Z,27.80
2019-05-18T01:12:49.889Z,27.65
2019-05-18T01:15:18.272Z,27.07
2019-05-18T01:17:57.028Z,27.40
2019-05-18T01:20:16.883Z,27.80
2019-05-18T01:22:44.822Z,26.90
2019-05-18T01:25:13.115Z,27.10
2019-05-18T01:27:41.393Z,28.38
2019-05-18T01:30:11.067Z,28.32
2019-05-18T01:35:08.263Z,29.07
2019-05-18T01:37:36.224Z,29.23
2019-05-18T01:40:04.826Z,28.92
2019-05-18T01:42:33.410Z,28.12
2019-05-18T01:45:15.877Z,28.02
2019-05-18T01:49:59.281Z,29.15
2019-05-18T01:52:27.492Z,29.45
2019-05-18T01:54:56.559Z,28.15
2019-05-18T01:57:24.531Z,28.20
2019-05-18T02:02:21.150Z,28.90
2019-05-18T02:04:49.441Z,27.60
2019-05-18T02:07:17.417Z,28.10
2019-05-18T02:09:45.890Z,28.30
2019-05-18T02:12:14.225Z,29.18
2019-05-18T02:14:42.231Z,28.12
2019-05-18T02:17:10.822Z,28.40
2019-05-18T02:22:07.683Z,28.40
2019-05-18T02:24:35.687Z,28.62
2019-05-18T02:27:03.673Z,29.05
2019-05-18T02:29:31.643Z,28.65
2019-05-18T02:31:59.617Z,28.62
2019-05-18T02:34:28.558Z,27.43
2019-05-18T02:36:56.880Z,28.40
2019-05-18T02:41:52.804Z,26.35
2019-05-18T02:44:20.744Z,27.85
2019-05-18T02:49:17.304Z,27.10
2019-05-18T02:51:45.574Z,27.00
2019-05-18T02:56:41.485Z,26.93
2019-05-18T02:59:09.445Z,26.75
2019-05-18T03:01:37.393Z,27.00
2019-05-18T03:04:05.605Z,26.52
2019-05-18T03:06:34.191Z,25.70
2019-05-18T03:09:02.135Z,25.92
2019-05-18T03:11:30.157Z,24.72
2019-05-18T03:16:26.125Z,26.45
2019-05-18T03:19:07.356Z,25.47
2019-05-18T03:23:51.705Z,26.20
2019-05-18T03:26:20.022Z,26.57
2019-05-18T03:28:48.245Z,26.40
2019-05-18T03:31:16.213Z,25.25
2019-05-18T03:33:44.185Z,26.40
2019-05-18T03:36:12.170Z,26.50
2019-05-18T03:38:40.475Z,25.97
2019-05-18T03:43:36.697Z,25.90
2019-05-18T03:46:05.319Z,26.55
2019-05-18T03:48:33.282Z,26.45
2019-05-18T03:51:01.558Z,26.85
2019-05-18T03:53:29.510Z,26.90
2019-05-18T03:55:57.807Z,26.42
2019-05-18T03:58:26.085Z,26.80
2019-05-18T04:03:22.378Z,26.90
2019-05-18T04:05:50.322Z,27.20
2019-05-18T04:10:46.551Z,27.37
2019-05-18T04:13:14.763Z,26.77
2019-05-18T04:15:42.745Z,26.93
2019-05-18T04:18:11.045Z,26.75
2019-05-18T04:20:39.033Z,27.73
2019-05-18T04:23:06.994Z,27.50
2019-05-18T04:25:35.596Z,26.70
2019-05-18T04:28:03.862Z,27.17
2019-05-18T04:30:32.451Z,27.00
2019-05-18T04:33:00.755Z,27.55
2019-05-18T04:37:57.230Z,27.25
2019-05-18T04:40:25.202Z,26.02
2019-05-18T04:42:53.519Z,27.30
2019-05-18T04:45:21.819Z,26.55
2019-05-18T04:47:49.773Z,26.52
2019-05-18T04:50:19.904Z,26.73
2019-05-18T04:52:48.167Z,26.73
2019-05-18T04:55:16.074Z,26.15
2019-05-18T04:57:44.424Z,26.62
2019-05-18T05:00:12.673Z,26.12
2019-05-18T05:05:09.255Z,25.05
2019-05-18T05:07:37.200Z,25.68
2019-05-18T05:10:05.887Z,25.70
2019-05-18T05:12:34.180Z,25.40
2019-05-18T05:15:03.280Z,25.27
2019-05-18T05:17:31.270Z,27.80
2019-05-18T05:19:59.531Z,28.00
2019-05-18T05:24:56.072Z,25.37
2019-05-18T05:27:24.332Z,25.30
2019-05-18T05:29:52.847Z,25.57
2019-05-18T05:32:21.119Z,26.20
2019-05-18T05:34:49.370Z,24.98
2019-05-18T05:37:17.673Z,24.67
2019-05-18T05:39:45.642Z,25.90
2019-05-18T05:44:42.203Z,24.35
2019-05-18T05:47:11.406Z,23.95
2019-05-18T05:49:39.716Z,24.65
2019-05-18T05:52:07.741Z,24.60
2019-05-18T05:54:36.022Z,24.65
2019-05-18T05:57:04.563Z,24.50
2019-05-18T05:59:32.882Z,24.45
2019-05-18T06:02:00.870Z,24.30
2019-05-18T06:04:29.077Z,24.40
2019-05-18T06:06:57.431Z,25.23
2019-05-18T06:11:55.172Z,23.40
2019-05-18T06:14:23.169Z,23.55
2019-05-18T06:16:51.142Z,24.65
2019-05-18T06:19:19.506Z,23.30
2019-05-18T06:21:47.803Z,23.80
2019-05-18T06:24:15.759Z,22.93
2019-05-18T06:26:44.030Z,22.50
2019-05-18T06:29:12.261Z,23.07
2019-05-18T06:31:40.887Z,22.40
2019-05-18T06:34:09.149Z,22.30
2019-05-18T06:39:06.648Z,23.73
2019-05-18T06:41:34.880Z,23.20
2019-05-18T06:44:02.947Z,23.50
2019-05-18T06:46:31.574Z,23.07
2019-05-18T06:49:00.108Z,22.50
2019-05-18T06:51:29.238Z,23.30
2019-05-18T06:53:57.199Z,22.00
2019-05-18T06:56:33.284Z,22.58
2019-05-18T06:59:01.813Z,21.90
2019-05-18T07:01:29.805Z,22.30
2019-05-18T07:03:58.120Z,21.73
2019-05-18T07:06:26.695Z,22.65
2019-05-18T07:08:57.751Z,23.15
2019-05-18T07:11:26.021Z,23.23
2019-05-18T07:13:54.016Z,22.60
2019-05-18T07:16:22.612Z,22.55
2019-05-18T07:18:51.164Z,23.27
2019-05-18T07:21:22.819Z,22.31
2019-05-18T07:23:51.515Z,22.00
2019-05-18T07:26:19.776Z,23.83
2019-05-18T07:31:16.722Z,23.77
2019-05-18T07:33:45.674Z,23.35
2019-05-18T07:36:14.228Z,23.05
2019-05-18T07:38:42.455Z,22.25
2019-05-18T07:43:38.565Z,22.10
2019-05-18T07:46:08.745Z,22.30
2019-05-18T07:48:36.961Z,22.90
2019-05-18T07:51:06.089Z,21.30
2019-05-18T07:53:34.871Z,20.40
2019-05-18T07:56:03.041Z,22.62
2019-05-18T07:58:32.829Z,22.58
2019-05-18T08:03:29.395Z,21.80
2019-05-18T08:05:57.546Z,21.60
2019-05-18T08:10:55.443Z,21.80
2019-05-18T08:13:23.745Z,20.53
2019-05-18T08:15:53.088Z,21.30
2019-05-18T08:18:21.502Z,21.65
2019-05-18T08:23:17.983Z,20.88
2019-05-18T08:25:46.270Z,19.42
2019-05-18T08:30:43.484Z,19.23
2019-05-18T08:33:12.829Z,18.93
2019-05-18T08:35:41.263Z,17.60
2019-05-18T08:38:10.322Z,17.73
2019-05-18T08:40:38.452Z,17.37
2019-05-18T08:43:06.540Z,16.90
2019-05-18T08:45:35.821Z,18.20
2019-05-18T08:50:32.913Z,17.95
2019-05-18T08:53:01.357Z,17.05
2019-05-18T08:55:29.560Z,15.50
2019-05-18T08:57:57.997Z,14.53
2019-05-18T09:00:26.124Z,14.98
2019-05-18T09:02:54.287Z,13.95
2019-05-18T09:05:22.517Z,16.87
2019-05-18T09:10:19.340Z,14.98
2019-05-18T09:12:47.889Z,15.58
2019-05-18T09:17:45.161Z,15.50
2019-05-18T09:20:14.971Z,15.15
2019-05-18T09:22:43.340Z,14.70
2019-05-18T09:25:11.551Z,12.50
2019-05-18T09:30:09.201Z,14.80
2019-05-18T09:32:37.439Z,12.85
2019-05-18T09:35:06.709Z,13.25
2019-05-18T09:37:35.190Z,12.40
2019-05-18T09:40:03.272Z,11.60
2019-05-18T09:42:31.333Z,11.00
2019-05-18T09:44:59.716Z,10.32
2019-05-18T09:49:56.320Z,9.90
2019-05-18T09:52:43.507Z,10.28
2019-05-18T09:54:54.644Z,8.90
2019-05-18T09:57:22.896Z,8.80
2019-05-18T09:59:50.998Z,9.80
2019-05-18T10:04:47.371Z,8.70
2019-05-18T10:07:15.911Z,8.30
2019-05-18T10:12:12.237Z,9.25
2019-05-18T10:14:40.255Z,8.00
2019-05-18T10:17:08.597Z,8.30
2019-05-18T10:19:36.861Z,8.28
2019-05-18T10:22:04.829Z,9.03
2019-05-18T10:24:33.535Z,8.40
2019-05-18T10:27:01.910Z,8.10
2019-05-18T10:31:59.280Z,8.00
2019-05-18T10:34:28.333Z,8.05
2019-05-18T10:36:56.549Z,8.43
2019-05-18T10:39:26.350Z,7.50
2019-05-18T10:41:54.649Z,7.95
2019-05-18T10:44:22.636Z,8.05
2019-05-18T10:46:51.204Z,8.58
2019-05-18T10:51:47.160Z,8.43
2019-05-18T10:54:15.380Z,7.40
2019-05-18T10:59:11.969Z,8.10
2019-05-18T11:01:43.591Z,8.10
2019-05-18T11:04:09.765Z,8.38
2019-05-18T11:06:38.016Z,7.80
2019-05-18T11:09:06.879Z,7.40
2019-05-18T11:11:34.818Z,7.40
2019-05-18T11:14:08.399Z,7.20
2019-05-18T11:16:36.126Z,7.50
2019-05-18T11:19:04.430Z,8.00
2019-05-18T11:21:32.561Z,8.30
2019-05-18T11:24:00.621Z,7.90
2019-05-18T11:26:28.719Z,7.60
2019-05-18T11:28:56.785Z,8.20
2019-05-18T11:31:24.993Z,8.03
2019-05-18T11:33:52.950Z,7.92
2019-05-18T11:38:50.151Z,7.10
2019-05-18T11:41:18.398Z,7.37
2019-05-18T11:43:46.835Z,7.00
2019-05-18T11:46:15.164Z,7.17
2019-05-18T11:48:44.025Z,7.60
2019-05-18T11:51:12.010Z,7.60
2019-05-18T11:53:40.403Z,7.42
2019-05-18T11:56:08.681Z,6.58
2019-05-18T11:58:37.575Z,6.10
2019-05-18T12:01:05.595Z,5.90
2019-05-18T12:06:02.778Z,5.50
2019-05-18T12:08:30.819Z,5.28
2019-05-18T12:10:59.567Z,5.80
2019-05-18T12:13:27.621Z,6.28
2019-05-18T12:18:23.820Z,5.95
2019-05-18T12:20:51.918Z,5.90
2019-05-18T12:23:20.705Z,6.00
2019-05-18T12:25:50.809Z,6.10
2019-05-18T12:28:18.944Z,6.50
2019-05-18T12:30:47.209Z,6.70
2019-05-18T12:33:15.884Z,6.33
2019-05-18T12:38:13.699Z,6.80
2019-05-18T12:40:41.834Z,6.90
2019-05-18T12:43:10.356Z,6.40
2019-05-18T12:45:39.101Z,6.60
2019-05-18T12:48:07.509Z,6.50
2019-05-18T12:50:35.912Z,6.50
2019-05-18T12:53:04.256Z,6.97
2019-05-18T12:55:32.407Z,6.60
2019-05-18T13:00:29.545Z,6.80
2019-05-18T13:02:57.749Z,6.77
2019-05-18T13:05:25.932Z,6.17
2019-05-18T13:07:53.994Z,6.05
2019-05-18T13:10:22.727Z,6.40
2019-05-18T13:12:51.015Z,5.65
2019-05-18T13:15:19.254Z,5.75
2019-05-18T13:20:17.609Z,6.00
2019-05-18T13:22:46.219Z,5.90
2019-05-18T13:25:14.505Z,6.40
2019-05-18T13:27:42.894Z,6.05
2019-05-18T13:30:11.640Z,6.60
2019-05-18T13:32:39.702Z,6.47
2019-05-18T13:35:08.170Z,6.20
2019-05-18T13:40:04.878Z,6.05
2019-05-18T13:42:33.189Z,6.00
2019-05-18T13:45:01.317Z,6.30
2019-05-18T13:47:29.685Z,6.53
2019-05-18T13:49:58.437Z,6.00
2019-05-18T13:52:26.595Z,5.62
2019-05-18T13:55:04.152Z,5.40
2019-05-18T13:59:52.850Z,5.40
2019-05-18T14:02:20.883Z,5.60
2019-05-18T14:04:49.401Z,5.90
2019-05-18T14:07:18.173Z,5.47
2019-05-18T14:12:17.499Z,5.53
2019-05-18T14:14:45.627Z,5.80
2019-05-18T14:17:13.665Z,6.50
2019-05-18T14:19:41.766Z,6.60
2019-05-18T14:22:10.555Z,6.90
2019-05-18T14:24:38.989Z,6.40
2019-05-18T14:27:07.478Z,6.65
2019-05-18T14:32:03.706Z,6.60
2019-05-18T14:34:31.778Z,7.20
2019-05-18T14:36:59.962Z,9.80
2019-05-18T14:39:28.075Z,7.62
2019-05-18T14:41:56.146Z,7.60
2019-05-18T14:44:24.787Z,7.60
2019-05-18T14:46:52.876Z,7.33
2019-05-18T14:49:21.161Z,6.70
2019-05-18T14:51:49.196Z,5.80
2019-05-18T14:54:17.770Z,5.17
2019-05-18T14:59:13.777Z,5.70
2019-05-18T15:01:42.046Z,5.50
2019-05-18T15:04:10.013Z,5.50
2019-05-18T15:06:37.953Z,5.65
2019-05-18T15:09:06.313Z,5.20
2019-05-18T15:11:34.383Z,5.62
2019-05-18T15:14:02.379Z,5.70
2019-05-18T15:18:58.701Z,6.85
2019-05-18T15:21:27.000Z,6.00
2019-05-18T15:23:55.080Z,6.17
2019-05-18T15:26:23.406Z,5.60
2019-05-18T15:28:51.866Z,5.47
2019-05-18T15:31:23.769Z,5.20
2019-05-18T15:33:51.293Z,4.90
2019-05-18T15:38:47.696Z,6.20
2019-05-18T15:41:15.688Z,8.13
2019-05-18T15:43:43.645Z,9.70
2019-05-18T15:46:11.962Z,10.10
2019-05-18T15:48:40.142Z,11.40
2019-05-18T15:51:08.225Z,11.30
2019-05-18T15:53:36.298Z,12.23
2019-05-18T15:56:06.197Z,12.50
2019-05-18T15:58:36.381Z,13.40
2019-05-18T16:01:05.964Z,13.83
2019-05-18T16:06:02.109Z,13.60
2019-05-18T16:08:32.108Z,13.80
2019-05-18T16:11:00.595Z,13.30
2019-05-18T16:13:28.937Z,13.00
2019-05-18T16:18:25.508Z,12.07
2019-05-18T16:20:54.157Z,11.70
2019-05-18T16:23:24.177Z,11.10
2019-05-18T16:25:52.344Z,10.45
2019-05-18T16:28:20.465Z,10.50
2019-05-18T16:30:48.909Z,10.10
2019-05-18T16:33:17.112Z,16.07
2019-05-18T16:38:14.955Z,9.97
2019-05-18T16:40:45.202Z,8.13
2019-05-18T16:43:13.391Z,7.60
2019-05-18T16:45:41.619Z,7.60
2019-05-18T16:48:09.915Z,7.70
2019-05-18T16:50:38.565Z,8.00
2019-05-18T16:53:06.798Z,7.62
2019-05-18T16:58:03.132Z,7.50
2019-05-18T17:00:31.282Z,7.58
2019-05-18T17:05:28.164Z,8.50
2019-05-18T17:07:56.952Z,9.03
2019-05-18T17:10:25.268Z,9.65
2019-05-18T17:12:53.475Z,9.00
2019-05-18T17:15:21.763Z,9.40
2019-05-18T17:17:50.127Z,9.50
2019-05-18T17:20:19.212Z,10.30
2019-05-18T17:25:16.273Z,10.60
2019-05-18T17:27:45.009Z,10.30
2019-05-18T17:30:13.929Z,10.70
2019-05-18T17:32:42.074Z,10.80
2019-05-18T17:35:10.357Z,10.10
2019-05-18T17:37:38.693Z,12.43
2019-05-18T17:40:07.289Z,11.30
2019-05-18T17:45:05.038Z,11.45
2019-05-18T17:47:33.588Z,11.70
2019-05-18T17:50:01.743Z,10.72
2019-05-18T17:52:29.913Z,10.88
2019-05-18T17:54:57.924Z,10.80
2019-05-18T17:57:26.796Z,10.97
2019-05-18T17:59:55.208Z,10.68
2019-05-18T18:04:54.066Z,10.35
2019-05-18T18:07:20.980Z,10.95
2019-05-18T18:09:48.989Z,11.12
2019-05-18T18:12:17.491Z,10.98
2019-05-18T18:14:45.960Z,11.03
2019-05-18T18:17:17.552Z,10.98
2019-05-18T18:19:44.106Z,10.50
2019-05-18T18:24:40.511Z,11.60
2019-05-18T18:27:22.723Z,13.58
2019-05-18T18:32:06.323Z,12.30
2019-05-18T18:34:34.528Z,14.37
2019-05-18T18:37:02.486Z,18.60
2019-05-18T18:39:30.735Z,18.25
2019-05-18T18:41:59.003Z,18.55
2019-05-18T18:44:27.253Z,14.90
2019-05-18T18:46:56.165Z,14.50
2019-05-18T18:51:52.598Z,14.65
2019-05-18T18:54:20.821Z,14.40
2019-05-18T18:56:49.106Z,14.17
2019-05-18T18:59:17.400Z,13.70
2019-05-18T19:01:45.652Z,13.50
2019-05-18T19:04:13.638Z,13.90
2019-05-18T19:06:41.960Z,14.15
2019-05-18T19:11:38.054Z,13.85
2019-05-18T19:14:06.042Z,17.30
2019-05-18T19:16:34.057Z,16.20
2019-05-18T19:19:02.298Z,14.70
2019-05-18T19:21:30.600Z,14.70
2019-05-18T19:23:59.184Z,17.50
2019-05-18T19:26:27.424Z,16.82
2019-05-18T19:28:55.730Z,18.00
2019-05-18T19:31:24.011Z,17.62
2019-05-18T19:33:53.389Z,16.57
2019-05-18T19:38:49.657Z,16.12
2019-05-18T19:41:17.604Z,16.73
2019-05-18T19:43:45.610Z,18.70
2019-05-18T19:46:13.550Z,17.52
2019-05-18T19:48:41.558Z,20.12
2019-05-18T19:51:09.811Z,21.33
2019-05-18T19:53:39.486Z,18.62
2019-05-18T19:58:35.667Z,18.92
2019-05-18T20:01:03.918Z,21.00
2019-05-18T20:03:31.917Z,20.60
2019-05-18T20:05:59.829Z,22.03
2019-05-18T20:08:27.918Z,19.87
2019-05-18T20:10:55.828Z,18.87
2019-05-18T20:13:23.825Z,20.15
2019-05-18T20:15:51.824Z,20.30
2019-05-18T20:18:19.822Z,20.40
2019-05-18T20:20:47.780Z,20.90
2019-05-18T20:25:44.079Z,19.02
2019-05-18T20:28:23.399Z,19.77
2019-05-18T20:30:41.671Z,20.30
2019-05-18T20:33:10.177Z,19.98
2019-05-18T20:35:38.167Z,21.12
2019-05-18T20:38:06.537Z,21.75
2019-05-18T20:40:34.790Z,21.70
2019-05-18T20:45:30.787Z,23.05
2019-05-18T20:47:58.810Z,22.20
2019-05-18T20:50:26.810Z,23.10
2019-05-18T20:52:54.797Z,22.48
2019-05-18T20:55:23.104Z,23.70
2019-05-18T20:57:51.554Z,23.52
2019-05-18T21:00:19.464Z,22.67
2019-05-18T21:02:47.428Z,24.80
2019-05-18T21:05:15.462Z,23.80
2019-05-18T21:07:43.793Z,24.20
2019-05-18T21:12:40.191Z,24.77
2019-05-18T21:15:09.861Z,23.92
2019-05-18T21:17:37.870Z,25.70
2019-05-18T21:20:06.044Z,25.70
2019-05-18T21:22:34.317Z,26.10
2019-05-18T21:25:03.890Z,26.48
2019-05-18T21:27:32.519Z,26.75
2019-05-18T21:30:00.464Z,27.10
2019-05-18T21:32:28.744Z,27.13
2019-05-18T21:34:57.001Z,27.87
2019-05-18T21:39:52.951Z,28.73
2019-05-18T21:42:21.557Z,28.35
2019-05-18T21:44:49.544Z,28.73
2019-05-18T21:47:17.795Z,28.10
2019-05-18T21:49:46.400Z,28.30
2019-05-18T21:52:14.803Z,28.83
2019-05-18T21:54:43.268Z,28.55
2019-05-18T21:59:39.960Z,29.40
2019-05-18T22:02:08.611Z,28.92
2019-05-18T22:04:36.736Z,28.98
2019-05-18T22:07:05.417Z,28.95
2019-05-18T22:09:34.060Z,28.95
2019-05-18T22:12:03.718Z,27.83
2019-05-18T22:14:32.452Z,28.87
2019-05-18T22:19:31.398Z,28.98
2019-05-18T22:22:00.483Z,29.32
2019-05-18T22:24:29.505Z,29.32
2019-05-18T22:26:57.606Z,29.02
2019-05-18T22:29:27.046Z,29.30
2019-05-18T22:31:56.451Z,29.95
2019-05-18T22:34:25.324Z,29.02
2019-05-18T22:36:53.971Z,28.07
2019-05-18T22:39:22.533Z,29.70
2019-05-18T22:41:50.930Z,28.77
2019-05-18T22:46:50.116Z,29.67
2019-05-18T22:49:19.679Z,29.92
2019-05-18T22:51:48.649Z,30.75
2019-05-18T22:54:16.628Z,30.23
2019-05-18T22:56:44.918Z,30.37
2019-05-18T22:59:13.858Z,31.35
2019-05-18T23:01:41.876Z,30.05
2019-05-18T23:04:10.055Z,30.70
2019-05-18T23:09:07.059Z,30.20
2019-05-18T23:11:35.276Z,30.53
2019-05-18T23:16:32.677Z,30.23
2019-05-18T23:19:01.173Z,31.80
2019-05-18T23:21:30.430Z,30.20
2019-05-18T23:23:58.414Z,30.17
2019-05-18T23:26:26.749Z,29.75
2019-05-18T23:28:56.581Z,31.10
2019-05-18T23:31:25.430Z,29.40
2019-05-18T23:36:21.576Z,30.00
2019-05-18T23:38:59.732Z,31.93
2019-05-18T23:41:28.751Z,31.15
2019-05-18T23:43:57.619Z,30.95
2019-05-18T23:46:26.314Z,30.40
2019-05-18T23:51:23.396Z,31.10
2019-05-18T23:53:53.897Z,30.45
2019-05-18T23:58:51.810Z,33.08
